createdAt,value
2022-10-07T00:11:39.224Z,73.8
2022-10-07T00:26:48.611Z,73.8
2022-10-07T00:41:58.023Z,73.9
2022-10-07T00:57:07.246Z,74.1
2022-10-07T01:12:16.965Z,74.3
2022-10-07T01:27:26.613Z,74.3
2022-10-07T01:42:35.523Z,74.4
2022-10-07T01:57:47.222Z,74.4
2022-10-07T02:12:56.807Z,74.5
2022-10-07T02:28:06.848Z,74.6
2022-10-07T02:43:16.641Z,75.1
2022-10-07T02:58:26.356Z,74.7
2022-10-07T03:13:35.818Z,74.8
2022-10-07T03:28:45.627Z,74.9
2022-10-07T03:43:55.684Z,74.9
2022-10-07T03:59:05.094Z,75.2
2022-10-07T04:14:14.248Z,74.8
2022-10-07T04:29:23.464Z,74.9
2022-10-07T04:44:32.661Z,74.8
2022-10-07T04:59:43.714Z,75.2
2022-10-07T05:14:53.083Z,74.9
2022-10-07T05:30:03.142Z,74.9
2022-10-07T05:45:13.032Z,75.1
2022-10-07T06:00:22.794Z,75.1
2022-10-07T06:15:32.115Z,75
2022-10-07T06:30:42.141Z,74.9
2022-10-07T06:45:52.517Z,75
2022-10-07T07:01:03.927Z,74.3
2022-10-07T07:16:14.095Z,74
2022-10-07T07:31:25.382Z,73.7
2022-10-07T07:46:35.530Z,73.5
2022-10-07T08:01:45.821Z,73
2022-10-07T08:16:56.062Z,72.7
2022-10-07T08:32:06.320Z,72.5
2022-10-07T08:47:16.845Z,72.1
2022-10-07T09:02:27.394Z,71.8
2022-10-07T09:17:37.777Z,71.6
2022-10-07T09:32:47.313Z,71.3
2022-10-07T09:47:57.472Z,71.1
2022-10-07T10:03:07.812Z,71.2
2022-10-07T10:18:18.534Z,70.5
2022-10-07T10:33:28.223Z,70
2022-10-07T10:48:38.059Z,69.8
2022-10-07T11:03:47.871Z,69.7
2022-10-07T11:18:57.786Z,69.2
2022-10-07T11:34:12.118Z,68.8
2022-10-07T11:49:22.581Z,67.9
2022-10-07T12:04:35.259Z,65.8
2022-10-07T12:19:45.062Z,64.1
2022-10-07T12:34:55.040Z,63.8
2022-10-07T12:50:04.709Z,63.9
2022-10-07T13:05:14.429Z,64.3
2022-10-07T13:20:24.600Z,64.4
2022-10-07T13:35:40.377Z,59.7
2022-10-07T13:50:49.677Z,61.3
2022-10-07T14:05:59.345Z,64.4
2022-10-07T14:21:09.257Z,65.1
2022-10-07T14:36:18.811Z,65.4
2022-10-07T14:51:28.751Z,65.7
2022-10-07T15:06:38.103Z,65.7
2022-10-07T15:21:48.912Z,65.9
2022-10-07T15:36:58.476Z,66.1
2022-10-07T15:52:08.232Z,66.3
2022-10-07T16:07:17.836Z,66.6
2022-10-07T16:22:27.713Z,66.9
2022-10-07T16:37:36.811Z,67.3
2022-10-07T16:52:46.281Z,67.8
2022-10-07T17:07:55.658Z,68.3
2022-10-07T17:23:05.612Z,68.6
2022-10-07T17:38:15.123Z,69.1
2022-10-07T17:53:24.304Z,69.4
2022-10-07T18:08:33.434Z,69.6
2022-10-07T18:23:42.924Z,69.8
2022-10-07T18:38:52.245Z,69.9
2022-10-07T18:54:01.550Z,70.1
2022-10-07T19:09:11.205Z,70.2
2022-10-07T19:24:20.551Z,70.4
2022-10-07T19:39:29.840Z,70.6
2022-10-07T19:54:39.169Z,70.8
2022-10-07T20:09:48.678Z,71
2022-10-07T20:24:58.460Z,71.1
2022-10-07T20:40:08.173Z,71.2
2022-10-07T20:55:17.395Z,71.2
2022-10-07T21:10:26.911Z,70.9
2022-10-07T21:25:36.117Z,71.4
2022-10-07T21:40:45.518Z,71.6
2022-10-07T21:55:54.810Z,71.7
2022-10-07T22:11:04.320Z,71.6
2022-10-07T22:26:13.455Z,71.6
2022-10-07T22:41:23.221Z,71.7
2022-10-07T22:56:33.430Z,72
2022-10-07T23:11:42.627Z,72.3
2022-10-07T23:26:51.413Z,72.5
2022-10-07T23:42:00.656Z,72.7
2022-10-07T23:57:11.646Z,71.8
